createdAt,value
2023-01-22T00:00:17.701Z,98749.50
2023-01-22T00:02:49.206Z,98745.47
2023-01-22T00:05:19.333Z,98739.41
2023-01-22T00:07:49.555Z,98737.63
2023-01-22T00:10:22.418Z,98743.44
2023-01-22T00:12:52.354Z,98735.03
2023-01-22T00:15:22.464Z,98738.97
2023-01-22T00:17:52.415Z,98733.78
2023-01-22T00:20:22.576Z,98727.09
2023-01-22T00:22:52.517Z,98723.81
2023-01-22T00:25:25.048Z,98725.03
2023-01-22T00:27:55.521Z,98728.88
2023-01-22T00:30:25.522Z,98725.06
2023-01-22T00:32:55.491Z,98717.50
2023-01-22T00:35:25.591Z,98715.59
2023-01-22T00:37:56.018Z,98719.69
2023-01-22T00:40:28.672Z,98712.13
2023-01-22T00:42:58.594Z,98713.09
2023-01-22T00:45:28.864Z,98712.38
2023-01-22T00:47:58.838Z,98712.91
2023-01-22T00:50:29.004Z,98717.13
2023-01-22T00:52:58.925Z,98718.81
2023-01-22T00:55:31.497Z,98717.38
2023-01-22T00:58:01.676Z,98711.50
2023-01-22T01:00:31.947Z,98711.78
2023-01-22T01:03:14.477Z,98714.88
2023-01-22T01:05:44.729Z,98721.50
2023-01-22T01:08:14.743Z,98713.91
2023-01-22T01:10:47.583Z,98717.03
2023-01-22T01:13:17.610Z,98716.31
2023-01-22T01:15:48.161Z,98724.69
2023-01-22T01:18:20.398Z,98726.38
2023-01-22T01:20:57.643Z,98720.34
2023-01-22T01:23:31.499Z,98723.25
2023-01-22T01:26:07.953Z,98713.63
2023-01-22T01:28:39.166Z,98712.13
2023-01-22T01:31:12.028Z,98715.34
2023-01-22T01:33:42.142Z,98709.25
2023-01-22T01:36:18.268Z,98705.97
2023-01-22T01:38:50.029Z,98707.00
2023-01-22T01:41:26.909Z,98713.97
2023-01-22T01:44:12.094Z,98713.97
2023-01-22T01:46:47.997Z,98708.00
2023-01-22T01:49:32.720Z,98712.34
2023-01-22T01:52:07.327Z,98711.81
2023-01-22T01:54:38.691Z,98705.59
2023-01-22T01:57:17.694Z,98705.69
2023-01-22T01:59:51.344Z,98704.19
2023-01-22T02:02:22.574Z,98704.78
2023-01-22T02:04:53.995Z,98707.28
2023-01-22T02:07:24.454Z,98706.81
2023-01-22T02:09:54.460Z,98707.00
2023-01-22T02:12:27.183Z,98708.59
2023-01-22T02:14:58.131Z,98696.38
2023-01-22T02:17:33.300Z,98707.00
2023-01-22T02:20:03.244Z,98703.63
2023-01-22T02:22:40.144Z,98700.41
2023-01-22T02:25:11.821Z,98705.41
2023-01-22T02:27:41.871Z,98708.78
2023-01-22T02:30:13.941Z,98699.72
2023-01-22T02:32:43.917Z,98692.63
2023-01-22T02:35:13.901Z,98697.91
2023-01-22T02:37:46.743Z,98694.34
2023-01-22T02:40:17.562Z,98700.22
2023-01-22T02:42:47.735Z,98701.63
2023-01-22T02:45:18.156Z,98698.94
2023-01-22T02:47:48.280Z,98706.44
2023-01-22T02:50:18.750Z,98701.06
2023-01-22T02:52:51.591Z,98702.84
2023-01-22T02:55:22.038Z,98702.69
2023-01-22T02:57:53.515Z,98702.16
2023-01-22T03:00:24.037Z,98694.47
2023-01-22T03:02:54.063Z,98696.06
2023-01-22T03:05:25.421Z,98706.25
2023-01-22T03:07:57.936Z,98694.47
2023-01-22T03:10:30.710Z,98695.88
2023-01-22T03:13:13.190Z,98696.25
2023-01-22T03:15:56.697Z,98694.69
2023-01-22T03:18:39.516Z,98691.47
2023-01-22T03:21:18.880Z,98690.28
2023-01-22T03:23:54.189Z,98695.47
2023-01-22T03:26:28.960Z,98689.47
2023-01-22T03:28:59.262Z,98691.25
2023-01-22T03:31:29.494Z,98695.69
2023-01-22T03:34:00.886Z,98687.69
2023-01-22T03:36:31.500Z,98684.69
2023-01-22T03:39:07.618Z,98699.56
2023-01-22T03:41:37.648Z,98691.25
2023-01-22T03:44:11.764Z,98691.88
2023-01-22T03:46:42.457Z,98691.97
2023-01-22T03:49:15.319Z,98695.28
2023-01-22T03:51:47.301Z,98694.88
2023-01-22T03:54:20.409Z,98702.50
2023-01-22T03:56:51.427Z,98701.00
2023-01-22T03:59:28.747Z,98703.47
2023-01-22T04:01:58.822Z,98697.31
2023-01-22T04:04:29.404Z,98693.00
2023-01-22T04:06:59.473Z,98692.50
2023-01-22T04:09:32.045Z,98697.81
2023-01-22T04:12:02.201Z,98698.72
2023-01-22T04:14:32.213Z,98703.63
2023-01-22T04:17:05.264Z,98706.19
2023-01-22T04:19:52.974Z,98706.31
2023-01-22T04:22:41.683Z,98707.91
2023-01-22T04:25:16.781Z,98714.59
2023-01-22T04:27:48.291Z,98709.94
2023-01-22T04:30:21.251Z,98708.16
2023-01-22T04:32:56.165Z,98702.25
2023-01-22T04:35:33.202Z,98700.66
2023-01-22T04:38:04.200Z,98702.53
2023-01-22T04:40:37.082Z,98711.13
2023-01-22T04:43:10.229Z,98710.72
2023-01-22T04:45:41.429Z,98713.13
2023-01-22T04:48:14.101Z,98716.75
2023-01-22T04:50:46.632Z,98712.16
2023-01-22T04:53:16.635Z,98714.72
2023-01-22T04:55:49.236Z,98709.75
2023-01-22T04:58:19.306Z,98714.81
2023-01-22T05:00:49.272Z,98718.13
2023-01-22T05:03:20.166Z,98720.25
2023-01-22T05:05:50.129Z,98725.78
2023-01-22T05:08:21.303Z,98730.38
2023-01-22T05:10:53.882Z,98723.00
2023-01-22T05:13:31.350Z,98737.81
2023-01-22T05:16:01.329Z,98736.63
2023-01-22T05:18:31.441Z,98747.41
2023-01-22T05:21:01.747Z,98743.41
2023-01-22T05:23:33.974Z,98740.63
2023-01-22T05:26:07.635Z,98741.44
2023-01-22T05:28:50.454Z,98745.97
2023-01-22T05:31:25.747Z,98744.84
2023-01-22T05:34:03.207Z,98747.66
2023-01-22T05:36:34.033Z,98758.09
2023-01-22T05:39:09.750Z,98752.47
2023-01-22T05:41:42.527Z,98756.16
2023-01-22T05:44:15.214Z,98757.06
2023-01-22T05:46:49.123Z,98763.50
2023-01-22T05:49:57.253Z,98764.50
2023-01-22T05:52:27.298Z,98772.25
2023-01-22T05:54:59.942Z,98767.44
2023-01-22T05:57:35.664Z,98770.19
2023-01-22T06:00:08.576Z,98779.06
2023-01-22T06:02:46.795Z,98774.84
2023-01-22T06:05:18.329Z,98775.44
2023-01-22T06:07:53.722Z,98776.06
2023-01-22T06:10:24.996Z,98769.75
2023-01-22T06:12:57.605Z,98768.03
2023-01-22T06:15:27.560Z,98775.03
2023-01-22T06:18:05.919Z,98780.56
2023-01-22T06:20:36.702Z,98775.88
2023-01-22T06:23:07.644Z,98781.06
2023-01-22T06:25:37.718Z,98789.28
2023-01-22T06:28:22.172Z,98783.69
2023-01-22T06:30:57.387Z,98789.09
2023-01-22T06:33:28.023Z,98793.00
2023-01-22T06:35:58.688Z,98799.69
2023-01-22T06:38:28.896Z,98795.69
2023-01-22T06:41:02.834Z,98803.59
2023-01-22T06:43:37.592Z,98800.13
2023-01-22T06:46:08.390Z,98796.31
2023-01-22T06:48:59.047Z,98802.81
2023-01-22T06:51:29.030Z,98801.81
2023-01-22T06:53:59.348Z,98805.41
2023-01-22T06:56:30.665Z,98811.91
2023-01-22T06:59:05.729Z,98818.22
2023-01-22T07:01:35.703Z,98815.13
2023-01-22T07:04:05.747Z,98816.53
2023-01-22T07:06:35.741Z,98817.34
2023-01-22T07:09:05.800Z,98821.75
2023-01-22T07:11:35.822Z,98830.75
2023-01-22T07:14:08.452Z,98832.88
2023-01-22T07:16:38.448Z,98831.97
2023-01-22T07:19:08.465Z,98827.97
2023-01-22T07:21:38.413Z,98828.56
2023-01-22T07:24:09.393Z,98829.66
2023-01-22T07:26:39.764Z,98832.78
2023-01-22T07:29:13.120Z,98831.38
2023-01-22T07:31:43.132Z,98845.38
2023-01-22T07:34:13.139Z,98839.06
2023-01-22T07:36:43.062Z,98841.56
2023-01-22T07:39:13.620Z,98841.56
2023-01-22T07:41:43.569Z,98835.38
2023-01-22T07:44:17.117Z,98836.47
2023-01-22T07:46:47.106Z,98833.97
2023-01-22T07:49:17.358Z,98830.34
2023-01-22T07:51:47.420Z,98835.38
2023-01-22T07:54:18.545Z,98841.06
2023-01-22T07:56:48.915Z,98840.16
2023-01-22T07:59:21.460Z,98838.56
2023-01-22T08:01:51.457Z,98842.78
2023-01-22T08:04:21.468Z,98845.88
2023-01-22T08:06:51.455Z,98851.28
2023-01-22T08:09:25.763Z,98843.94
2023-01-22T08:11:56.151Z,98845.34
2023-01-22T08:14:28.715Z,98856.66
2023-01-22T08:16:58.679Z,98854.16
2023-01-22T08:19:29.475Z,98857.13
2023-01-22T08:21:59.783Z,98858.94
2023-01-22T08:24:29.830Z,98865.97
2023-01-22T08:27:00.583Z,98867.63
2023-01-22T08:29:33.203Z,98869.44
2023-01-22T08:32:03.291Z,98875.00
2023-01-22T08:34:33.316Z,98875.41
2023-01-22T08:37:03.319Z,98878.81
2023-01-22T08:39:33.291Z,98879.50
2023-01-22T08:42:03.286Z,98880.25
2023-01-22T08:44:35.915Z,98886.03
2023-01-22T08:47:06.189Z,98886.44
2023-01-22T08:49:36.440Z,98882.91
2023-01-22T08:52:06.698Z,98884.72
2023-01-22T08:54:36.891Z,98883.63
2023-01-22T08:57:07.398Z,98878.13
2023-01-22T08:59:41.580Z,98878.94
2023-01-22T09:02:16.289Z,98873.03
2023-01-22T09:04:46.271Z,98878.91
2023-01-22T09:07:16.270Z,98881.72
2023-01-22T09:09:46.221Z,98889.16
2023-01-22T09:12:16.213Z,98881.19
2023-01-22T09:14:49.019Z,98880.84
2023-01-22T09:17:19.276Z,98882.59
2023-01-22T09:19:49.235Z,98891.56
2023-01-22T09:22:20.328Z,98886.72
2023-01-22T09:24:50.270Z,98884.00
2023-01-22T09:27:20.446Z,98888.84
2023-01-22T09:29:53.016Z,98893.56
2023-01-22T09:32:22.952Z,98894.75
2023-01-22T09:34:52.958Z,98892.88
2023-01-22T09:37:23.173Z,98894.78
2023-01-22T09:39:53.395Z,98896.94
2023-01-22T09:42:29.560Z,98892.22
2023-01-22T09:45:09.335Z,98902.22
2023-01-22T09:47:48.464Z,98905.47
2023-01-22T09:50:24.730Z,98909.53
2023-01-22T09:52:59.641Z,98909.66
2023-01-22T09:55:34.100Z,98915.03
2023-01-22T09:58:12.210Z,98916.69
2023-01-22T10:00:51.194Z,98923.88
2023-01-22T10:03:29.577Z,98928.53
2023-01-22T10:06:03.445Z,98920.00
2023-01-22T10:08:40.793Z,98933.44
2023-01-22T10:11:12.965Z,98931.06
2023-01-22T10:13:43.233Z,98926.16
2023-01-22T10:16:16.193Z,98932.97
2023-01-22T10:18:56.540Z,98932.28
2023-01-22T10:21:29.905Z,98934.09
2023-01-22T10:24:01.266Z,98930.50
2023-01-22T10:26:40.241Z,98934.34
2023-01-22T10:29:15.401Z,98932.31
2023-01-22T10:31:56.453Z,98934.59
2023-01-22T10:34:32.524Z,98934.81
2023-01-22T10:37:06.532Z,98942.63
2023-01-22T10:39:46.218Z,98937.44
2023-01-22T10:42:21.066Z,98935.84
2023-01-22T10:44:51.519Z,98942.53
2023-01-22T10:47:27.577Z,98944.34
2023-01-22T10:50:15.045Z,98938.06
2023-01-22T10:52:54.774Z,98944.94
2023-01-22T10:55:27.729Z,98948.88
2023-01-22T10:58:02.977Z,98949.78
2023-01-22T11:00:50.448Z,98952.16
2023-01-22T11:03:31.273Z,98947.88
2023-01-22T11:06:07.780Z,98946.47
2023-01-22T11:08:49.761Z,98946.22
2023-01-22T11:11:26.359Z,98945.38
2023-01-22T11:14:07.247Z,98939.34
2023-01-22T11:16:42.414Z,98940.94
2023-01-22T11:19:32.611Z,98932.44
2023-01-22T11:22:15.875Z,98936.06
2023-01-22T11:24:48.628Z,98933.31
2023-01-22T11:27:41.445Z,98934.19
2023-01-22T11:30:37.244Z,98935.13
2023-01-22T11:33:24.883Z,98930.78
2023-01-22T11:36:05.391Z,98935.47
2023-01-22T11:38:51.378Z,98941.19
2023-01-22T11:41:42.216Z,98939.09
2023-01-22T11:44:51.875Z,98936.66
2023-01-22T11:47:55.549Z,98930.41
2023-01-22T11:50:33.881Z,98931.34
2023-01-22T11:53:28.654Z,98935.72
2023-01-22T11:56:19.804Z,98933.09
2023-01-22T11:59:01.922Z,98928.78
2023-01-22T12:01:54.943Z,98918.69
2023-01-22T12:04:51.765Z,98921.09
2023-01-22T12:07:43.800Z,98913.31
2023-01-22T12:10:52.967Z,98921.91
2023-01-22T12:13:49.018Z,98916.72
2023-01-22T12:16:42.549Z,98916.88
2023-01-22T12:19:51.238Z,98919.91
2023-01-22T12:22:33.922Z,98923.28
2023-01-22T12:25:19.411Z,98921.25
2023-01-22T12:28:00.120Z,98922.84
2023-01-22T12:30:44.854Z,98915.44
2023-01-22T12:33:22.538Z,98924.94
2023-01-22T12:35:55.684Z,98925.69
2023-01-22T12:38:41.529Z,98925.38
2023-01-22T12:41:37.053Z,98924.19
2023-01-22T12:44:30.876Z,98927.34
2023-01-22T12:47:15.329Z,98929.47
2023-01-22T12:49:51.115Z,98927.41
2023-01-22T12:52:34.090Z,98930.72
2023-01-22T12:55:07.620Z,98927.75
2023-01-22T12:57:44.001Z,98927.41
2023-01-22T13:00:31.790Z,98926.00
2023-01-22T13:03:02.224Z,98931.16
2023-01-22T13:05:47.092Z,98929.03
2023-01-22T13:08:30.529Z,98928.03
2023-01-22T13:11:03.388Z,98931.38
2023-01-22T13:13:37.120Z,98926.50
2023-01-22T13:16:24.494Z,98935.69
2023-01-22T13:18:59.788Z,98938.91
2023-01-22T13:21:33.593Z,98939.53
2023-01-22T13:24:07.353Z,98934.50
2023-01-22T13:26:41.747Z,98938.69
2023-01-22T13:29:26.915Z,98929.66
2023-01-22T13:32:03.140Z,98941.63
2023-01-22T13:34:33.788Z,98937.69
2023-01-22T13:37:03.927Z,98943.13
2023-01-22T13:39:37.097Z,98942.50
2023-01-22T13:42:10.443Z,98944.94
2023-01-22T13:44:47.992Z,98944.47
2023-01-22T13:47:36.077Z,98947.97
2023-01-22T13:50:06.853Z,98945.97
2023-01-22T13:52:36.895Z,98951.44
2023-01-22T13:55:18.917Z,98950.53
2023-01-22T13:57:50.709Z,98950.72
2023-01-22T14:00:31.873Z,98950.53
2023-01-22T14:03:06.454Z,98949.72
2023-01-22T14:05:38.823Z,98940.69
2023-01-22T14:08:12.524Z,98947.94
2023-01-22T14:10:44.210Z,98953.06
2023-01-22T14:13:16.700Z,98943.41
2023-01-22T14:15:59.498Z,98950.44
2023-01-22T14:18:32.734Z,98956.78
2023-01-22T14:21:02.726Z,98950.84
2023-01-22T14:23:32.932Z,98956.25
2023-01-22T14:26:07.363Z,98958.69
2023-01-22T14:28:38.969Z,98958.75
2023-01-22T14:31:08.956Z,98964.47
2023-01-22T14:33:41.609Z,98963.34
2023-01-22T14:36:12.532Z,98958.06
2023-01-22T14:38:42.522Z,98963.13
2023-01-22T14:41:12.465Z,98965.97
2023-01-22T14:43:42.456Z,98967.81
2023-01-22T14:46:12.425Z,98972.13
2023-01-22T14:48:44.983Z,98966.81
2023-01-22T14:51:15.289Z,98970.06
2023-01-22T14:53:45.270Z,98970.28
2023-01-22T14:56:15.282Z,98974.22
2023-01-22T14:58:45.356Z,98969.91
2023-01-22T15:01:20.996Z,98978.22
2023-01-22T15:03:54.247Z,98980.53
2023-01-22T15:06:25.736Z,98978.81
2023-01-22T15:08:55.732Z,98982.75
2023-01-22T15:11:25.734Z,98991.34
2023-01-22T15:13:55.719Z,98992.78
2023-01-22T15:16:25.774Z,98991.69
2023-01-22T15:19:00.211Z,98997.47
2023-01-22T15:21:30.262Z,99000.00
2023-01-22T15:24:01.591Z,99006.63
2023-01-22T15:26:36.519Z,99008.53
2023-01-22T15:29:08.736Z,99007.50
2023-01-22T15:31:39.872Z,99005.53
2023-01-22T15:34:13.627Z,99004.13
2023-01-22T15:36:43.780Z,99007.31
2023-01-22T15:39:13.762Z,99017.63
2023-01-22T15:41:43.826Z,99014.13
2023-01-22T15:44:16.769Z,99010.34
2023-01-22T15:46:47.385Z,99012.63
2023-01-22T15:49:20.367Z,99009.44
2023-01-22T15:51:50.342Z,99019.53
2023-01-22T15:54:20.297Z,99015.53
2023-01-22T15:56:50.423Z,99015.94
2023-01-22T15:59:20.641Z,99019.94
2023-01-22T16:01:51.619Z,99016.84
2023-01-22T16:04:24.134Z,99017.44
2023-01-22T16:06:54.193Z,99014.31
2023-01-22T16:09:24.276Z,99022.84
2023-01-22T16:11:54.405Z,99017.53
2023-01-22T16:14:24.404Z,99026.84
2023-01-22T16:16:54.452Z,99024.94
2023-01-22T16:19:27.132Z,99016.09
2023-01-22T16:21:57.395Z,99020.31
2023-01-22T16:24:27.604Z,99022.03
2023-01-22T16:26:57.545Z,99021.31
2023-01-22T16:29:28.191Z,99030.53
2023-01-22T16:31:58.585Z,99023.41
2023-01-22T16:34:31.185Z,99025.91
2023-01-22T16:37:01.281Z,99027.69
2023-01-22T16:39:33.897Z,99031.19
2023-01-22T16:42:03.980Z,99032.78
2023-01-22T16:44:33.929Z,99025.28
2023-01-22T16:47:03.887Z,99036.28
2023-01-22T16:49:37.613Z,99027.91
2023-01-22T16:52:21.952Z,99036.13
2023-01-22T16:54:52.995Z,99047.34
2023-01-22T16:57:23.032Z,99050.56
2023-01-22T16:59:52.976Z,99047.94
2023-01-22T17:02:22.934Z,99061.19
2023-01-22T17:04:57.143Z,99053.94
2023-01-22T17:07:33.667Z,99057.16
2023-01-22T17:10:04.872Z,99052.28
2023-01-22T17:12:35.051Z,99063.81
2023-01-22T17:15:05.371Z,99064.06
2023-01-22T17:17:35.488Z,99061.84
2023-01-22T17:20:09.451Z,99058.66
2023-01-22T17:22:39.467Z,99061.34
2023-01-22T17:25:11.273Z,99063.75
2023-01-22T17:27:41.667Z,99062.25
2023-01-22T17:30:15.604Z,99062.97
2023-01-22T17:32:47.618Z,99069.75
2023-01-22T17:35:21.016Z,99072.97
2023-01-22T17:37:51.488Z,99072.06
2023-01-22T17:40:21.856Z,99068.75
2023-01-22T17:42:51.805Z,99071.53
2023-01-22T17:45:22.514Z,99081.56
2023-01-22T17:47:52.490Z,99078.78
2023-01-22T17:50:25.081Z,99082.00
2023-01-22T17:52:55.873Z,99080.38
2023-01-22T17:55:26.768Z,99081.19
2023-01-22T17:57:59.777Z,99084.38
2023-01-22T18:00:31.512Z,99083.78
2023-01-22T18:03:01.579Z,99083.50
2023-01-22T18:05:36.345Z,99082.09
2023-01-22T18:08:06.604Z,99085.25
2023-01-22T18:10:36.625Z,99095.91
2023-01-22T18:13:06.647Z,99099.09
2023-01-22T18:15:36.885Z,99098.22
2023-01-22T18:18:07.438Z,99108.91
2023-01-22T18:20:40.198Z,99112.84
2023-01-22T18:23:10.159Z,99110.44
2023-01-22T18:25:46.841Z,99116.25
2023-01-22T18:28:17.826Z,99116.63
2023-01-22T18:30:49.426Z,99121.81
2023-01-22T18:33:21.366Z,99126.03
2023-01-22T18:35:55.789Z,99121.81
2023-01-22T18:38:27.471Z,99125.41
2023-01-22T18:40:58.828Z,99129.63
2023-01-22T18:43:29.180Z,99125.69
2023-01-22T18:46:05.073Z,99130.28
2023-01-22T18:48:35.296Z,99132.97
2023-01-22T18:53:49.971Z,99128.47
2023-01-22T18:56:20.099Z,99129.03
2023-01-22T18:58:50.290Z,99141.72
2023-01-22T19:01:23.496Z,99144.59
2023-01-22T19:03:56.805Z,99136.19
2023-01-22T19:06:29.910Z,99139.69
2023-01-22T19:09:08.867Z,99143.34
2023-01-22T19:11:42.914Z,99152.97
2023-01-22T19:14:16.715Z,99154.44
2023-01-22T19:16:48.634Z,99164.06
2023-01-22T19:19:20.497Z,99155.84
2023-01-22T19:21:58.011Z,99159.16
2023-01-22T19:24:32.319Z,99156.56
2023-01-22T19:27:02.311Z,99161.19
2023-01-22T19:29:32.391Z,99161.56
2023-01-22T19:32:02.433Z,99164.22
2023-01-22T19:34:32.625Z,99162.63
2023-01-22T19:37:06.390Z,99165.66
2023-01-22T19:39:41.600Z,99157.34
2023-01-22T19:42:11.834Z,99163.88
2023-01-22T19:44:42.997Z,99166.75
2023-01-22T19:47:14.464Z,99174.44
2023-01-22T19:49:45.052Z,99164.69
2023-01-22T19:52:16.416Z,99177.13
2023-01-22T19:54:50.690Z,99174.63
2023-01-22T19:57:20.795Z,99160.78
2023-01-22T19:59:55.287Z,99168.19
2023-01-22T20:02:25.421Z,99169.16
2023-01-22T20:04:55.565Z,99174.88
2023-01-22T20:07:27.155Z,99172.50
2023-01-22T20:10:00.054Z,99180.00
2023-01-22T20:12:30.101Z,99175.50
2023-01-22T20:15:00.036Z,99173.00
2023-01-22T20:17:30.123Z,99177.47
2023-01-22T20:20:00.086Z,99168.66
2023-01-22T20:22:30.168Z,99175.50
2023-01-22T20:25:02.788Z,99168.00
2023-01-22T20:27:33.360Z,99168.38
2023-01-22T20:30:03.518Z,99173.53
2023-01-22T20:32:33.743Z,99173.53
2023-01-22T20:35:03.815Z,99181.59
2023-01-22T20:37:34.221Z,99180.78
2023-01-22T20:40:07.766Z,99178.63
2023-01-22T20:42:37.804Z,99173.72
2023-01-22T20:45:10.048Z,99177.28
2023-01-22T20:47:40.933Z,99177.28
2023-01-22T20:50:14.242Z,99184.00
2023-01-22T20:52:44.504Z,99185.06
2023-01-22T20:55:17.645Z,99183.56
2023-01-22T20:57:48.096Z,99187.13
2023-01-22T21:00:19.387Z,99195.16
2023-01-22T21:02:52.436Z,99191.59
2023-01-22T21:05:22.443Z,99192.16
2023-01-22T21:07:52.477Z,99194.47
2023-01-22T21:10:25.587Z,99193.50
2023-01-22T21:12:55.523Z,99195.00
2023-01-22T21:15:25.529Z,99194.03
2023-01-22T21:17:55.715Z,99199.84
2023-01-22T21:20:25.767Z,99199.72
2023-01-22T21:22:56.166Z,99197.34
2023-01-22T21:25:28.687Z,99198.75
2023-01-22T21:27:58.748Z,99196.44
2023-01-22T21:30:28.778Z,99200.53
2023-01-22T21:32:59.661Z,99205.47
2023-01-22T21:35:29.670Z,99199.66
2023-01-22T21:37:59.633Z,99206.97
2023-01-22T21:40:33.572Z,99212.16
2023-01-22T21:43:16.031Z,99210.22
2023-01-22T21:45:58.637Z,99211.97
2023-01-22T21:48:28.960Z,99206.78
2023-01-22T21:50:59.009Z,99205.81
2023-01-22T21:53:29.355Z,99201.44
2023-01-22T21:56:01.915Z,99209.28
2023-01-22T21:58:31.959Z,99202.94
2023-01-22T22:01:10.071Z,99206.06
2023-01-22T22:03:40.031Z,99208.22
2023-01-22T22:06:11.464Z,99202.50
2023-01-22T22:08:43.597Z,99209.66
2023-01-22T22:11:17.230Z,99212.84
2023-01-22T22:13:47.224Z,99220.22
2023-01-22T22:16:17.333Z,99222.53
2023-01-22T22:18:47.313Z,99217.25
2023-01-22T22:21:17.530Z,99220.41
2023-01-22T22:23:47.529Z,99220.09
2023-01-22T22:26:21.112Z,99220.41
2023-01-22T22:28:51.088Z,99231.03
2023-01-22T22:31:21.945Z,99233.00
2023-01-22T22:33:56.557Z,99230.75
2023-01-22T22:36:30.059Z,99246.31
2023-01-22T22:39:02.224Z,99238.91
2023-01-22T22:41:38.656Z,99241.41
2023-01-22T22:44:10.835Z,99233.00
2023-01-22T22:46:42.316Z,99245.50
2023-01-22T22:49:16.218Z,99234.94
2023-01-22T22:51:47.044Z,99236.47
2023-01-22T22:54:19.607Z,99231.81
2023-01-22T22:56:52.893Z,99231.81
2023-01-22T22:59:23.145Z,99236.28
2023-01-22T23:01:54.120Z,99231.66
2023-01-22T23:04:24.221Z,99238.19
2023-01-22T23:06:54.539Z,99242.19
2023-01-22T23:09:24.952Z,99245.44
2023-01-22T23:11:57.734Z,99239.69
2023-01-22T23:14:28.306Z,99239.78
2023-01-22T23:16:59.322Z,99237.00
2023-01-22T23:19:30.435Z,99237.56
2023-01-22T23:22:02.832Z,99241.59
2023-01-22T23:24:32.954Z,99238.59
2023-01-22T23:27:05.579Z,99235.47
2023-01-22T23:29:35.800Z,99238.97
2023-01-22T23:32:05.789Z,99236.91
2023-01-22T23:34:35.729Z,99234.50
2023-01-22T23:37:05.688Z,99229.13
2023-01-22T23:39:35.685Z,99236.28
2023-01-22T23:42:10.398Z,99228.06
2023-01-22T23:44:40.803Z,99222.31
2023-01-22T23:47:10.811Z,99221.44
2023-01-22T23:49:41.104Z,99212.47
2023-01-22T23:52:11.129Z,99220.97
2023-01-22T23:54:41.248Z,99211.06
2023-01-22T23:57:13.871Z,99208.72
2023-01-22T23:59:43.903Z,99215.63
